createdAt,value
2016-11-29T00:00:33.153Z,99.99
2016-11-29T00:01:46.704Z,99.8
2016-11-29T00:03:00.197Z,99.31
2016-11-29T00:04:13.213Z,98.58
2016-11-29T00:05:26.687Z,99.99
2016-11-29T00:06:40.203Z,99.99
2016-11-29T00:07:52.921Z,99.99
2016-11-29T00:09:06.484Z,99.99
2016-11-29T00:10:18.947Z,99.99
2016-11-29T00:11:31.935Z,99.99
2016-11-29T00:12:45.494Z,99.99
2016-11-29T00:13:59.020Z,99.99
2016-11-29T00:15:12.254Z,99.99
2016-11-29T00:16:25.810Z,99.99
2016-11-29T00:17:38.786Z,99.99
2016-11-29T00:18:51.758Z,99.99
2016-11-29T00:20:05.140Z,99.99
2016-11-29T00:21:18.688Z,99.99
2016-11-29T00:22:32.242Z,99.99
2016-11-29T00:23:45.842Z,99.99
2016-11-29T00:24:59.341Z,99.99
2016-11-29T00:26:12.400Z,99.99
2016-11-29T00:27:25.983Z,99.99
2016-11-29T00:28:39.434Z,99.99
2016-11-29T00:29:52.967Z,99.99
2016-11-29T00:31:05.936Z,99.99
2016-11-29T00:32:18.924Z,99.99
2016-11-29T00:33:32.462Z,99.99
2016-11-29T00:34:46.014Z,99.99
2016-11-29T00:35:59.601Z,99.99
2016-11-29T00:37:12.684Z,99.99
2016-11-29T00:38:25.694Z,99.99
2016-11-29T00:39:39.303Z,99.99
2016-11-29T00:40:52.811Z,99.99
2016-11-29T00:42:06.158Z,99.99
2016-11-29T00:43:19.420Z,99.99
2016-11-29T00:44:32.416Z,99.99
2016-11-29T00:45:44.932Z,99.99
2016-11-29T00:46:58.510Z,99.99
2016-11-29T00:48:12.441Z,99.99
2016-11-29T00:49:25.544Z,99.99
2016-11-29T00:50:39.333Z,99.99
2016-11-29T00:51:52.784Z,99.99
2016-11-29T00:53:06.221Z,99.99
2016-11-29T00:54:19.239Z,99.99
2016-11-29T00:55:32.789Z,99.99
2016-11-29T00:56:46.324Z,99.99
2016-11-29T00:57:59.337Z,99.99
2016-11-29T00:59:12.315Z,99.99
2016-11-29T01:00:25.344Z,99.99
2016-11-29T01:01:39.039Z,99.99
2016-11-29T01:02:52.062Z,99.99
2016-11-29T01:04:05.619Z,99.99
2016-11-29T01:05:19.179Z,99.99
2016-11-29T01:06:32.779Z,99.99
2016-11-29T01:07:46.384Z,99.99
2016-11-29T01:08:59.979Z,99.99
2016-11-29T01:10:13.036Z,99.99
2016-11-29T01:11:26.579Z,99.99
2016-11-29T01:12:40.121Z,99.99
2016-11-29T01:13:53.139Z,99.99
2016-11-29T01:15:05.674Z,99.99
2016-11-29T01:16:18.433Z,99.99
2016-11-29T01:18:02.328Z,99.99
2016-11-29T01:19:15.943Z,99.99
2016-11-29T01:20:29.015Z,99.99
2016-11-29T01:21:41.540Z,99.99
2016-11-29T01:22:54.508Z,99.99
2016-11-29T01:24:07.974Z,99.99
2016-11-29T01:25:20.976Z,99.99
2016-11-29T01:26:34.543Z,99.99
2016-11-29T01:27:48.127Z,99.99
2016-11-29T01:29:02.055Z,99.99
2016-11-29T01:30:15.153Z,99.99
2016-11-29T01:31:28.758Z,99.99
2016-11-29T01:32:42.477Z,99.99
2016-11-29T01:33:55.962Z,99.99
2016-11-29T01:35:09.488Z,99.99
2016-11-29T01:36:22.486Z,99.99
2016-11-29T01:37:36.423Z,99.99
2016-11-29T01:38:49.949Z,99.99
2016-11-29T01:40:03.483Z,99.99
2016-11-29T01:41:16.480Z,99.99
2016-11-29T01:42:29.829Z,99.99
2016-11-29T01:43:42.898Z,99.99
2016-11-29T01:44:55.368Z,99.99
2016-11-29T01:46:09.407Z,99.99
2016-11-29T01:47:22.896Z,99.99
2016-11-29T01:48:36.292Z,99.99
2016-11-29T01:49:49.788Z,99.99
2016-11-29T01:51:02.785Z,99.99
2016-11-29T01:52:16.318Z,99.99
2016-11-29T01:53:29.843Z,99.99
2016-11-29T01:54:43.422Z,99.99
2016-11-29T01:55:56.707Z,99.99
2016-11-29T01:57:10.232Z,99.99
2016-11-29T01:58:23.253Z,99.99
2016-11-29T01:59:36.737Z,99.99
2016-11-29T02:00:49.732Z,99.99
2016-11-29T02:02:03.254Z,99.99
2016-11-29T02:03:16.806Z,99.99
2016-11-29T02:04:30.069Z,99.99
2016-11-29T02:05:43.545Z,99.99
2016-11-29T02:06:56.771Z,99.99
2016-11-29T02:08:10.338Z,99.99
2016-11-29T02:09:22.859Z,99.99
2016-11-29T02:10:36.418Z,99.99
2016-11-29T02:11:49.494Z,99.99
2016-11-29T02:13:03.093Z,99.99
2016-11-29T02:14:16.610Z,99.99
2016-11-29T02:15:30.172Z,99.99
2016-11-29T02:18:28.310Z,99.99
2016-11-29T02:19:41.310Z,99.99
2016-11-29T02:20:54.848Z,99.99
2016-11-29T02:22:08.382Z,99.99
2016-11-29T02:23:21.958Z,99.99
2016-11-29T02:24:35.521Z,99.99
2016-11-29T02:25:48.541Z,99.99
2016-11-29T02:27:02.114Z,99.99
2016-11-29T02:28:15.730Z,99.99
2016-11-29T02:29:29.283Z,99.99
2016-11-29T02:30:42.526Z,99.99
2016-11-29T02:31:56.149Z,99.99
2016-11-29T02:33:09.680Z,99.99
2016-11-29T02:34:23.218Z,99.99
2016-11-29T02:35:36.784Z,99.99
2016-11-29T02:36:49.751Z,99.99
2016-11-29T02:38:03.389Z,99.99
2016-11-29T02:39:16.920Z,99.99
2016-11-29T02:40:30.481Z,99.99
2016-11-29T02:41:43.487Z,99.99
2016-11-29T02:42:57.041Z,99.99
2016-11-29T02:44:10.533Z,99.99
2016-11-29T02:45:23.761Z,99.99
2016-11-29T02:46:37.269Z,99.99
2016-11-29T02:47:50.844Z,99.99
2016-11-29T02:49:04.360Z,99.99
2016-11-29T02:50:17.910Z,99.99
2016-11-29T02:51:30.947Z,99.99
2016-11-29T02:52:44.596Z,99.99
2016-11-29T02:53:57.853Z,99.99
2016-11-29T02:55:10.333Z,99.99
2016-11-29T02:56:23.840Z,99.99
2016-11-29T02:57:35.867Z,99.99
2016-11-29T02:58:49.467Z,99.99
2016-11-29T03:00:02.002Z,99.99
2016-11-29T03:01:15.031Z,99.99
2016-11-29T03:02:28.544Z,99.99
2016-11-29T03:04:13.546Z,99.99
2016-11-29T03:05:27.074Z,99.99
2016-11-29T03:06:40.568Z,99.99
2016-11-29T03:07:54.036Z,99.99
2016-11-29T03:09:08.187Z,99.99
2016-11-29T03:10:21.139Z,99.99
2016-11-29T03:11:33.548Z,99.99
2016-11-29T03:12:47.062Z,99.99
2016-11-29T03:14:00.292Z,99.99
2016-11-29T03:15:13.871Z,99.99
2016-11-29T03:16:27.366Z,99.99
2016-11-29T03:17:40.455Z,99.99
2016-11-29T03:19:25.109Z,99.99
2016-11-29T03:20:38.608Z,99.99
2016-11-29T03:21:52.034Z,99.99
2016-11-29T03:23:05.630Z,99.99
2016-11-29T03:24:19.133Z,99.99
2016-11-29T03:25:31.946Z,99.99
2016-11-29T03:26:45.186Z,99.99
2016-11-29T03:27:58.756Z,99.99
2016-11-29T03:29:12.689Z,99.99
2016-11-29T03:30:25.184Z,99.99
2016-11-29T03:31:38.240Z,99.99
2016-11-29T03:32:51.761Z,99.99
2016-11-29T03:34:05.041Z,99.99
2016-11-29T03:35:18.365Z,99.99
2016-11-29T03:36:31.333Z,99.99
2016-11-29T03:37:44.880Z,99.99
2016-11-29T03:38:58.172Z,99.99
2016-11-29T03:40:11.664Z,99.99
2016-11-29T03:41:24.180Z,99.99
2016-11-29T03:42:37.647Z,99.99
2016-11-29T03:43:51.170Z,99.99
2016-11-29T03:45:04.152Z,99.99
2016-11-29T03:46:48.797Z,99.99
2016-11-29T03:48:01.922Z,99.99
2016-11-29T03:49:14.415Z,99.99
2016-11-29T03:50:27.451Z,99.99
2016-11-29T03:51:41.037Z,99.99
2016-11-29T03:52:53.961Z,99.99
2016-11-29T03:54:07.544Z,99.99
2016-11-29T03:55:20.550Z,99.99
2016-11-29T03:56:34.048Z,99.99
2016-11-29T03:57:47.028Z,99.99
2016-11-29T03:59:00.540Z,99.99
2016-11-29T04:00:14.103Z,99.99
2016-11-29T04:01:27.616Z,99.99
2016-11-29T04:02:40.638Z,99.99
2016-11-29T04:03:54.163Z,99.99
2016-11-29T04:05:07.659Z,99.99
2016-11-29T04:06:21.176Z,99.99
2016-11-29T04:07:35.087Z,99.99
2016-11-29T04:08:48.032Z,99.99
2016-11-29T04:10:01.579Z,99.99
2016-11-29T04:11:14.639Z,99.99
2016-11-29T04:12:59.314Z,99.99
2016-11-29T04:14:12.965Z,99.99
2016-11-29T04:15:26.534Z,99.99
2016-11-29T04:16:40.216Z,99.99
2016-11-29T04:17:53.822Z,99.99
2016-11-29T04:19:06.861Z,99.99
2016-11-29T04:20:20.432Z,99.99
2016-11-29T04:21:33.742Z,99.99
2016-11-29T04:22:47.274Z,99.99
2016-11-29T04:23:59.827Z,99.99
2016-11-29T04:25:12.940Z,99.99
2016-11-29T04:26:26.019Z,99.99
2016-11-29T04:27:39.646Z,99.99
2016-11-29T04:28:53.275Z,99.99
2016-11-29T04:30:38.192Z,99.99
2016-11-29T04:31:51.753Z,99.99
2016-11-29T04:33:05.363Z,99.99
2016-11-29T04:34:17.953Z,99.99
2016-11-29T04:35:31.575Z,99.99
2016-11-29T04:36:45.145Z,99.99
2016-11-29T04:37:58.816Z,99.99
2016-11-29T04:39:11.963Z,99.99
2016-11-29T04:40:25.197Z,99.99
2016-11-29T04:41:38.277Z,99.99
2016-11-29T04:42:51.864Z,99.99
2016-11-29T04:44:05.101Z,99.99
2016-11-29T04:45:18.759Z,99.99
2016-11-29T04:46:32.360Z,99.99
2016-11-29T04:47:45.507Z,99.99
2016-11-29T04:48:58.821Z,99.99
2016-11-29T04:50:12.475Z,99.99
2016-11-29T04:51:26.101Z,99.99
2016-11-29T04:52:39.398Z,99.99
2016-11-29T04:53:53.058Z,99.99
2016-11-29T04:55:06.570Z,99.99
2016-11-29T04:56:19.913Z,99.99
2016-11-29T04:57:33.502Z,99.99
2016-11-29T04:58:47.121Z,99.99
2016-11-29T05:00:00.731Z,99.99
2016-11-29T05:01:14.374Z,99.99
2016-11-29T05:02:27.916Z,99.99
2016-11-29T05:03:39.954Z,99.99
2016-11-29T05:04:52.521Z,99.99
2016-11-29T05:06:05.777Z,99.99
2016-11-29T05:07:19.091Z,99.99
2016-11-29T05:08:32.637Z,99.99
2016-11-29T05:09:45.112Z,99.99
2016-11-29T05:10:58.171Z,99.99
2016-11-29T05:12:10.684Z,99.99
2016-11-29T05:13:23.275Z,99.99
2016-11-29T05:16:21.124Z,99.99
2016-11-29T05:17:34.712Z,99.99
2016-11-29T05:18:47.814Z,99.99
2016-11-29T05:20:01.511Z,99.99
2016-11-29T05:21:15.073Z,99.99
2016-11-29T05:22:28.208Z,99.99
2016-11-29T05:23:41.846Z,99.99
2016-11-29T05:24:54.403Z,99.99
2016-11-29T05:26:07.424Z,99.99
2016-11-29T05:27:20.997Z,99.99
2016-11-29T05:28:34.110Z,99.99
2016-11-29T05:29:47.694Z,99.99
2016-11-29T05:31:01.291Z,99.99
2016-11-29T05:32:14.845Z,99.99
2016-11-29T05:33:28.197Z,99.99
2016-11-29T05:34:41.817Z,99.99
2016-11-29T05:35:54.891Z,99.99
2016-11-29T05:37:08.237Z,99.99
2016-11-29T05:38:21.850Z,99.99
2016-11-29T05:39:35.160Z,99.99
2016-11-29T05:40:47.988Z,99.99
2016-11-29T05:42:01.606Z,99.99
2016-11-29T05:43:15.107Z,99.99
2016-11-29T05:44:28.528Z,99.99
2016-11-29T05:45:42.503Z,99.99
2016-11-29T05:46:56.119Z,99.99
2016-11-29T05:48:08.947Z,99.99
2016-11-29T05:49:22.596Z,99.99
2016-11-29T05:50:36.339Z,99.99
2016-11-29T05:51:49.946Z,99.99
2016-11-29T05:53:02.947Z,99.99
2016-11-29T05:54:16.044Z,99.99
2016-11-29T05:55:29.636Z,99.99
2016-11-29T05:56:43.259Z,99.99
2016-11-29T05:57:56.838Z,99.99
2016-11-29T05:59:09.918Z,99.99
2016-11-29T06:00:23.577Z,99.99
2016-11-29T06:01:37.193Z,99.99
2016-11-29T06:02:50.297Z,99.99
2016-11-29T06:04:03.997Z,99.99
2016-11-29T06:05:17.597Z,99.99
2016-11-29T06:06:30.973Z,99.99
2016-11-29T06:07:44.547Z,99.99
2016-11-29T06:08:57.688Z,99.99
2016-11-29T06:10:11.219Z,99.99
2016-11-29T06:11:24.839Z,99.99
2016-11-29T06:12:38.485Z,99.99
2016-11-29T06:13:51.496Z,99.99
2016-11-29T06:15:05.167Z,99.99
2016-11-29T06:16:18.767Z,99.99
2016-11-29T06:17:32.392Z,99.99
2016-11-29T06:18:45.972Z,99.99
2016-11-29T06:19:59.605Z,99.99
2016-11-29T06:21:13.216Z,99.99
2016-11-29T06:22:26.275Z,99.99
2016-11-29T06:23:39.441Z,99.99
2016-11-29T06:24:52.515Z,99.99
2016-11-29T06:26:05.575Z,99.99
2016-11-29T06:27:18.137Z,99.99
2016-11-29T06:28:32.065Z,99.99
2016-11-29T06:29:45.138Z,99.99
2016-11-29T06:30:57.665Z,99.99
2016-11-29T06:32:10.733Z,99.99
2016-11-29T06:33:23.802Z,99.99
2016-11-29T06:34:37.409Z,99.99
2016-11-29T06:35:51.020Z,99.99
2016-11-29T06:37:04.138Z,99.99
2016-11-29T06:38:17.166Z,99.99
2016-11-29T06:39:30.303Z,99.99
2016-11-29T06:40:42.753Z,99.99
2016-11-29T06:41:56.363Z,99.99
2016-11-29T06:43:09.762Z,99.99
2016-11-29T06:44:23.299Z,99.99
2016-11-29T06:45:36.913Z,99.99
2016-11-29T06:46:50.568Z,99.99
2016-11-29T06:48:03.646Z,99.99
2016-11-29T06:49:17.305Z,99.99
2016-11-29T06:50:30.324Z,99.99
2016-11-29T06:51:43.398Z,99.99
2016-11-29T06:53:28.090Z,99.99
2016-11-29T06:54:41.421Z,99.99
2016-11-29T06:55:55.057Z,99.99
2016-11-29T06:57:08.313Z,99.99
2016-11-29T06:58:21.825Z,99.99
2016-11-29T06:59:35.172Z,99.99
2016-11-29T07:00:48.898Z,99.99
2016-11-29T07:02:02.096Z,99.99
2016-11-29T07:03:14.951Z,99.99
2016-11-29T07:04:28.584Z,99.99
2016-11-29T07:05:42.153Z,99.99
2016-11-29T07:06:55.203Z,99.99
2016-11-29T07:08:08.783Z,99.99
2016-11-29T07:09:22.402Z,99.99
2016-11-29T07:10:36.055Z,99.99
2016-11-29T07:11:49.078Z,99.99
2016-11-29T07:13:02.662Z,99.99
2016-11-29T07:15:59.835Z,99.99
2016-11-29T07:17:13.490Z,99.99
2016-11-29T07:18:27.079Z,99.99
2016-11-29T07:19:40.655Z,99.99
2016-11-29T07:20:54.319Z,99.99
2016-11-29T07:22:07.774Z,99.99
2016-11-29T07:23:52.508Z,99.99
2016-11-29T07:25:06.353Z,99.99
2016-11-29T07:26:19.964Z,99.99
2016-11-29T07:27:33.621Z,99.99
2016-11-29T07:28:46.706Z,99.99
2016-11-29T07:29:59.720Z,99.99
2016-11-29T07:31:13.320Z,99.99
2016-11-29T07:32:26.377Z,99.99
2016-11-29T07:33:40.037Z,99.99
2016-11-29T07:34:53.106Z,99.99
2016-11-29T07:36:06.739Z,99.99
2016-11-29T07:37:19.803Z,99.99
2016-11-29T07:38:32.332Z,99.99
2016-11-29T07:39:45.418Z,99.99
2016-11-29T07:40:59.086Z,99.99
2016-11-29T07:42:12.629Z,99.99
2016-11-29T07:43:25.685Z,99.99
2016-11-29T07:44:39.491Z,99.99
2016-11-29T07:45:51.977Z,99.99
2016-11-29T07:47:05.628Z,99.99
2016-11-29T07:48:50.362Z,99.99
2016-11-29T07:50:03.766Z,99.99
2016-11-29T07:52:44.761Z,99.99
2016-11-29T07:53:57.570Z,99.99
2016-11-29T07:55:11.075Z,99.99
2016-11-29T07:56:24.645Z,99.99
2016-11-29T07:57:37.793Z,99.99
2016-11-29T07:58:51.428Z,99.99
2016-11-29T08:00:05.195Z,99.99
2016-11-29T08:01:18.815Z,99.99
2016-11-29T08:02:32.077Z,99.99
2016-11-29T08:03:45.720Z,99.99
2016-11-29T08:04:59.276Z,99.99
2016-11-29T08:06:12.337Z,99.99
2016-11-29T08:07:25.442Z,99.99
2016-11-29T08:08:39.038Z,99.99
2016-11-29T08:09:52.659Z,99.99
2016-11-29T08:11:05.720Z,99.99
2016-11-29T08:12:19.428Z,99.99
2016-11-29T08:13:32.587Z,99.99
2016-11-29T08:14:46.198Z,99.99
2016-11-29T08:15:59.815Z,99.99
2016-11-29T08:17:13.386Z,99.99
2016-11-29T08:18:26.710Z,99.99
2016-11-29T08:19:40.270Z,99.99
2016-11-29T08:20:53.389Z,99.99
2016-11-29T08:22:07.019Z,99.99
2016-11-29T08:23:20.726Z,99.99
2016-11-29T08:24:34.329Z,99.99
2016-11-29T08:25:47.911Z,99.99
2016-11-29T08:27:01.484Z,99.99
2016-11-29T08:28:15.110Z,99.99
2016-11-29T08:29:28.429Z,99.99
2016-11-29T08:30:42.058Z,99.99
2016-11-29T08:31:55.607Z,99.99
2016-11-29T08:33:08.945Z,99.99
2016-11-29T08:34:22.568Z,99.99
2016-11-29T08:35:36.425Z,99.99
2016-11-29T08:36:50.077Z,99.99
2016-11-29T08:38:03.645Z,99.99
2016-11-29T08:39:17.273Z,99.99
2016-11-29T08:40:30.879Z,99.99
2016-11-29T08:41:44.444Z,99.99
2016-11-29T08:42:57.223Z,99.99
2016-11-29T08:44:10.277Z,99.99
2016-11-29T08:45:23.383Z,99.99
2016-11-29T08:46:36.973Z,99.99
2016-11-29T08:47:50.346Z,99.99
2016-11-29T08:49:03.329Z,99.99
2016-11-29T08:50:16.890Z,99.99
2016-11-29T08:51:29.909Z,99.99
2016-11-29T08:52:43.552Z,99.99
2016-11-29T08:53:56.870Z,99.99
2016-11-29T08:55:10.410Z,99.99
2016-11-29T08:56:23.996Z,99.99
2016-11-29T08:57:37.046Z,99.99
2016-11-29T08:58:49.537Z,99.99
2016-11-29T09:00:03.114Z,99.99
2016-11-29T09:01:16.725Z,99.99
2016-11-29T09:02:30.349Z,99.99
2016-11-29T09:03:43.404Z,99.99
2016-11-29T09:04:57.100Z,99.99
2016-11-29T09:06:10.119Z,99.99
2016-11-29T09:07:22.078Z,99.99
2016-11-29T09:08:35.176Z,99.99
2016-11-29T09:11:33.299Z,99.99
2016-11-29T09:12:46.354Z,99.99
2016-11-29T09:13:59.447Z,99.99
2016-11-29T09:15:12.514Z,99.99
2016-11-29T09:16:26.130Z,99.99
2016-11-29T09:17:39.717Z,99.99
2016-11-29T09:18:53.271Z,99.99
2016-11-29T09:20:06.860Z,99.99
2016-11-29T09:21:19.955Z,99.99
2016-11-29T09:22:32.983Z,99.99
2016-11-29T09:23:45.991Z,99.99
2016-11-29T09:24:59.581Z,99.99
2016-11-29T09:26:12.158Z,99.99
2016-11-29T09:27:25.741Z,99.99
2016-11-29T09:28:39.515Z,99.99
2016-11-29T09:29:53.099Z,99.99
2016-11-29T09:32:50.554Z,99.99
2016-11-29T09:34:03.433Z,99.99
2016-11-29T09:35:16.472Z,99.99
2016-11-29T09:36:30.091Z,99.99
2016-11-29T09:37:43.741Z,99.99
2016-11-29T09:38:56.872Z,99.99
2016-11-29T09:40:10.038Z,99.99
2016-11-29T09:41:23.630Z,99.99
2016-11-29T09:42:37.205Z,99.99
2016-11-29T09:44:21.867Z,99.99
2016-11-29T09:45:35.425Z,99.99
2016-11-29T09:46:48.503Z,99.99
2016-11-29T09:48:02.106Z,99.99
2016-11-29T09:49:15.696Z,99.99
2016-11-29T09:50:29.336Z,99.99
2016-11-29T09:51:42.605Z,99.99
2016-11-29T09:52:55.698Z,99.99
2016-11-29T09:54:08.995Z,99.99
2016-11-29T09:55:22.650Z,99.99
2016-11-29T09:56:35.247Z,99.99
2016-11-29T09:57:48.846Z,99.99
2016-11-29T09:59:02.130Z,99.99
2016-11-29T10:00:15.753Z,99.99
2016-11-29T10:01:29.132Z,99.99
2016-11-29T10:02:42.664Z,99.99
2016-11-29T10:03:56.316Z,99.99
2016-11-29T10:05:09.926Z,99.99
2016-11-29T10:06:22.723Z,99.99
2016-11-29T10:07:36.401Z,99.99
2016-11-29T10:08:49.916Z,99.99
2016-11-29T10:10:03.439Z,99.99
2016-11-29T10:11:16.510Z,99.99
2016-11-29T10:12:30.132Z,99.99
2016-11-29T10:13:43.724Z,99.99
2016-11-29T10:14:57.342Z,99.99
2016-11-29T10:16:10.193Z,99.99
2016-11-29T10:17:23.253Z,99.99
2016-11-29T10:18:36.342Z,99.99
2016-11-29T10:19:49.914Z,99.99
2016-11-29T10:21:03.561Z,99.99
2016-11-29T10:22:16.163Z,99.99
2016-11-29T10:23:29.737Z,99.99
2016-11-29T10:24:43.437Z,99.99
2016-11-29T10:25:57.005Z,99.99
2016-11-29T10:27:09.898Z,99.99
2016-11-29T10:28:23.053Z,99.99
2016-11-29T10:29:36.126Z,99.99
2016-11-29T10:30:48.964Z,99.99
2016-11-29T10:32:02.540Z,99.99
2016-11-29T10:33:15.622Z,99.99
2016-11-29T10:34:29.208Z,99.99
2016-11-29T10:35:42.588Z,99.99
2016-11-29T10:36:56.197Z,99.99
2016-11-29T10:38:09.284Z,99.99
2016-11-29T10:39:22.877Z,99.99
2016-11-29T10:40:35.907Z,99.99
2016-11-29T10:41:48.512Z,99.99
2016-11-29T10:43:02.156Z,99.99
2016-11-29T10:44:15.287Z,99.99
2016-11-29T10:45:28.700Z,99.99
2016-11-29T10:46:42.595Z,99.99
2016-11-29T10:47:55.938Z,99.99
2016-11-29T10:49:09.588Z,99.99
2016-11-29T10:50:23.252Z,99.99
2016-11-29T10:51:36.424Z,99.99
2016-11-29T10:52:49.725Z,99.99
2016-11-29T10:54:03.322Z,99.99
2016-11-29T10:55:16.445Z,99.99
2016-11-29T10:56:30.087Z,99.99
2016-11-29T10:57:43.674Z,99.99
2016-11-29T10:58:56.725Z,99.99
2016-11-29T11:00:10.356Z,99.99
2016-11-29T11:01:23.959Z,99.99
2016-11-29T11:02:37.537Z,99.99
2016-11-29T11:03:50.625Z,99.99
2016-11-29T11:05:03.729Z,99.99
2016-11-29T11:06:17.329Z,99.99
2016-11-29T11:07:30.854Z,99.99
2016-11-29T11:08:44.553Z,99.99
2016-11-29T11:09:58.189Z,99.99
2016-11-29T11:11:11.831Z,99.99
2016-11-29T11:12:24.926Z,99.99
2016-11-29T11:13:38.314Z,99.99
2016-11-29T11:14:51.315Z,99.99
2016-11-29T11:16:05.188Z,99.99
2016-11-29T11:17:18.778Z,99.99
2016-11-29T11:18:31.899Z,99.99
2016-11-29T11:19:45.228Z,99.99
2016-11-29T11:20:58.852Z,99.99
2016-11-29T11:22:12.162Z,99.99
2016-11-29T11:23:25.721Z,99.99
2016-11-29T11:24:38.998Z,99.99
2016-11-29T11:25:51.466Z,99.99
2016-11-29T11:27:04.516Z,99.99
2016-11-29T11:28:18.086Z,99.99
2016-11-29T11:29:31.726Z,99.99
2016-11-29T11:30:44.797Z,99.99
2016-11-29T11:31:58.114Z,99.99
2016-11-29T11:33:12.539Z,99.99
2016-11-29T11:34:25.621Z,99.99
2016-11-29T11:35:39.223Z,99.99
2016-11-29T11:36:51.738Z,99.99
2016-11-29T11:38:05.316Z,99.99
2016-11-29T11:39:18.903Z,99.99
2016-11-29T11:40:32.235Z,99.99
2016-11-29T11:41:45.359Z,99.99
2016-11-29T11:42:58.382Z,99.99
2016-11-29T11:44:11.388Z,99.99
2016-11-29T11:45:24.942Z,99.99
2016-11-29T11:46:38.535Z,99.99
2016-11-29T11:47:52.073Z,99.99
2016-11-29T11:49:05.673Z,99.99
2016-11-29T11:50:19.279Z,99.99
2016-11-29T11:51:32.937Z,99.99
2016-11-29T11:52:46.501Z,99.99
2016-11-29T11:54:00.149Z,99.99
2016-11-29T11:55:13.889Z,99.99
2016-11-29T11:56:26.989Z,99.99
2016-11-29T11:57:40.628Z,99.99
2016-11-29T11:58:54.179Z,99.99
2016-11-29T12:00:07.842Z,99.99
2016-11-29T12:01:20.876Z,99.99
2016-11-29T12:02:33.399Z,99.99
2016-11-29T12:03:46.475Z,99.99
2016-11-29T12:04:59.003Z,99.99
2016-11-29T12:06:12.675Z,99.99
2016-11-29T12:07:57.363Z,99.99
2016-11-29T12:09:09.923Z,99.99
2016-11-29T12:10:23.507Z,99.99
2016-11-29T12:11:37.108Z,99.99
2016-11-29T12:12:50.721Z,99.99
2016-11-29T12:14:04.286Z,99.99
2016-11-29T12:15:17.660Z,99.99
2016-11-29T12:16:31.267Z,99.99
2016-11-29T12:18:16.012Z,99.99
2016-11-29T12:19:29.583Z,99.99
2016-11-29T12:20:42.606Z,99.99
2016-11-29T12:22:27.333Z,99.99
2016-11-29T12:23:40.907Z,99.99
2016-11-29T12:24:53.401Z,99.99
2016-11-29T12:26:06.492Z,99.99
2016-11-29T12:27:20.053Z,99.99
2016-11-29T12:28:33.111Z,99.99
2016-11-29T12:30:17.837Z,99.99
2016-11-29T12:31:31.473Z,99.99
2016-11-29T12:32:44.983Z,99.99
2016-11-29T12:33:58.642Z,99.99
2016-11-29T12:35:11.497Z,99.99
2016-11-29T12:36:25.075Z,99.99
2016-11-29T12:39:23.102Z,99.99
2016-11-29T12:40:36.182Z,99.99
2016-11-29T12:41:49.811Z,99.99
2016-11-29T12:43:03.384Z,99.99
2016-11-29T12:44:16.522Z,99.99
2016-11-29T12:45:29.655Z,99.99
2016-11-29T12:46:43.277Z,99.99
2016-11-29T12:47:55.296Z,99.99
2016-11-29T12:49:08.388Z,99.99
2016-11-29T12:50:20.964Z,99.99
2016-11-29T12:51:34.618Z,99.99
2016-11-29T12:52:47.135Z,99.99
2016-11-29T12:53:59.935Z,99.02
2016-11-29T12:55:13.312Z,98.63
2016-11-29T12:56:26.387Z,98.39
2016-11-29T12:57:39.680Z,98.2
2016-11-29T12:58:52.809Z,98.1
2016-11-29T13:00:05.985Z,98.1
2016-11-29T13:01:19.596Z,98.1
2016-11-29T13:02:32.748Z,97.56
2016-11-29T13:03:46.400Z,97.66
2016-11-29T13:05:00.040Z,96.69
2016-11-29T13:06:13.574Z,97.38
2016-11-29T13:07:27.146Z,96.89
2016-11-29T13:08:40.182Z,96.31
2016-11-29T13:09:52.740Z,96.31
2016-11-29T13:11:06.566Z,96.36
2016-11-29T13:12:20.213Z,96.94
2016-11-29T13:13:33.833Z,96.94
2016-11-29T13:14:46.968Z,97.52
2016-11-29T13:16:00.115Z,97.57
2016-11-29T13:17:13.743Z,97.33
2016-11-29T13:18:26.861Z,98.25
2016-11-29T13:19:39.954Z,98.05
2016-11-29T13:20:53.515Z,97.61
2016-11-29T13:22:07.101Z,97.86
2016-11-29T13:23:20.193Z,98.54
2016-11-29T13:24:33.222Z,98.44
2016-11-29T13:25:46.777Z,98.93
2016-11-29T13:26:59.889Z,99.51
2016-11-29T13:28:13.014Z,99.22
2016-11-29T13:29:26.573Z,99.99
2016-11-29T13:30:39.633Z,99.6
2016-11-29T13:31:52.727Z,99.41
2016-11-29T13:33:06.627Z,99.99
2016-11-29T13:34:19.885Z,99.99
2016-11-29T13:35:32.927Z,99.99
2016-11-29T13:36:46.575Z,99.99
2016-11-29T13:38:00.304Z,99.99
2016-11-29T13:39:13.943Z,99.99
2016-11-29T13:40:27.498Z,99.85
2016-11-29T13:41:40.626Z,99.99
2016-11-29T13:42:53.738Z,99.85
2016-11-29T13:44:06.840Z,99.75
2016-11-29T13:45:20.190Z,99.85
2016-11-29T13:46:33.817Z,99.75
2016-11-29T13:47:47.420Z,99.85
2016-11-29T13:49:00.542Z,99.94
2016-11-29T13:50:14.115Z,99.8
2016-11-29T13:51:27.806Z,99.85
2016-11-29T13:52:41.399Z,99.85
2016-11-29T13:53:55.032Z,99.85
2016-11-29T13:55:08.638Z,99.85
2016-11-29T13:56:22.298Z,99.46
2016-11-29T13:58:06.996Z,98.54
2016-11-29T13:59:20.020Z,98.25
2016-11-29T14:00:33.578Z,98.2
2016-11-29T14:01:47.174Z,97.81
2016-11-29T14:03:00.312Z,97.33
2016-11-29T14:04:13.971Z,96.69
2016-11-29T14:05:27.569Z,95.73
2016-11-29T14:06:41.202Z,95.82
2016-11-29T14:07:54.343Z,95.67
2016-11-29T14:09:07.390Z,95.43
2016-11-29T14:10:20.977Z,95.77
2016-11-29T14:11:34.622Z,95.92
2016-11-29T14:12:48.229Z,95.92
2016-11-29T14:14:01.255Z,95.43
2016-11-29T14:15:14.866Z,95.34
2016-11-29T14:16:27.939Z,95.09
2016-11-29T14:17:41.028Z,94.51
2016-11-29T14:18:54.713Z,93.29
2016-11-29T14:20:07.849Z,94.26
2016-11-29T14:21:21.501Z,94.07
2016-11-29T14:22:35.363Z,93.98
2016-11-29T14:23:48.979Z,93.39
2016-11-29T14:25:02.266Z,93.88
2016-11-29T14:26:15.922Z,93.01
2016-11-29T14:27:29.580Z,92.71
2016-11-29T14:28:43.254Z,92.81
2016-11-29T14:29:56.936Z,91.88
2016-11-29T14:31:10.286Z,91.88
2016-11-29T14:32:23.408Z,91.01
2016-11-29T14:33:37.004Z,90.28
2016-11-29T14:34:50.370Z,90.18
2016-11-29T14:36:03.458Z,89.59
2016-11-29T14:37:17.046Z,89.69
2016-11-29T14:38:30.068Z,90.18
2016-11-29T14:39:43.725Z,90.47
2016-11-29T14:40:56.825Z,89.69
2016-11-29T14:42:09.903Z,88.82
2016-11-29T14:43:22.972Z,88.57
2016-11-29T14:44:36.614Z,87.79
2016-11-29T14:45:49.779Z,87.35
2016-11-29T14:47:03.407Z,86.67
2016-11-29T14:48:16.781Z,86.47
2016-11-29T14:49:30.378Z,87.35
2016-11-29T14:50:44.858Z,87.45
2016-11-29T14:51:58.022Z,87.16
2016-11-29T14:53:11.623Z,87.64
2016-11-29T14:54:24.732Z,87.16
2016-11-29T14:55:37.903Z,86.87
2016-11-29T14:56:50.462Z,87.7
2016-11-29T14:58:04.132Z,87.84
2016-11-29T14:59:17.722Z,88.48
2016-11-29T15:00:31.362Z,88.48
2016-11-29T15:01:45.033Z,88.76
2016-11-29T15:02:58.653Z,89.25
2016-11-29T15:04:11.980Z,89.21
2016-11-29T15:05:25.036Z,90.08
2016-11-29T15:06:38.624Z,90.04
2016-11-29T15:07:51.422Z,89.69
2016-11-29T15:09:05.359Z,89.4
2016-11-29T15:10:18.425Z,89.75
2016-11-29T15:11:31.531Z,89.45
2016-11-29T15:12:45.091Z,88.04
2016-11-29T15:13:58.650Z,86.53
2016-11-29T15:15:12.288Z,86.72
2016-11-29T15:16:25.919Z,85.79
2016-11-29T15:19:24.360Z,85.41
2016-11-29T15:20:37.952Z,85.5
2016-11-29T15:21:51.515Z,85.41
2016-11-29T15:23:04.649Z,86.28
2016-11-29T15:24:17.174Z,86.87
2016-11-29T15:25:30.842Z,87.6
2016-11-29T15:26:44.170Z,89.21
2016-11-29T15:27:57.817Z,89.4
2016-11-29T15:29:11.428Z,89.84
2016-11-29T15:30:25.038Z,90.62
2016-11-29T15:31:37.033Z,90.62
2016-11-29T15:32:50.606Z,91.11
2016-11-29T15:34:03.700Z,91.35
2016-11-29T15:35:17.107Z,91.5
2016-11-29T15:36:30.753Z,92.03
2016-11-29T15:37:43.879Z,91.06
2016-11-29T15:38:57.560Z,91.11
2016-11-29T15:40:11.157Z,91.25
2016-11-29T15:41:24.289Z,91.55
2016-11-29T15:42:37.377Z,92.13
2016-11-29T15:43:51.079Z,92.13
2016-11-29T15:45:04.197Z,92.22
2016-11-29T15:46:17.224Z,92.61
2016-11-29T15:47:30.799Z,93.63
2016-11-29T15:48:44.428Z,94.6
2016-11-29T15:49:58.109Z,94.32
2016-11-29T15:51:11.721Z,93.88
2016-11-29T15:52:24.850Z,93.93
2016-11-29T15:53:38.501Z,94.02
2016-11-29T15:54:52.117Z,94.32
2016-11-29T15:56:05.695Z,94.17
2016-11-29T15:57:19.268Z,94.22
2016-11-29T15:58:32.356Z,93.93
2016-11-29T15:59:45.472Z,94.12
2016-11-29T16:00:58.564Z,94.7
2016-11-29T16:02:11.633Z,94.7
2016-11-29T16:03:24.746Z,94.17
2016-11-29T16:04:38.504Z,94.22
2016-11-29T16:05:51.651Z,94.17
2016-11-29T16:07:05.445Z,94.17